KLM702 SAEZ-EHAM
Flight info
| Callsign | KLM702 |
|---|---|
| Flight time | N/A |
| Altitude | 31000 |
| Route | DORVO1E DORVO UN857 OGRUN DCT NIGBI UZ121 PENSO UZ5 UDIGI/N0499F330 UZ5 SEKPO DCT KADAG UZ2 SLI DCT MAVKO DCT GOGSO/N0489F350 DCT GARPO/M083F350 DCT TEGTO DCT SORAD DCT 35N022W/M083F370 40N019W DCT GONAN DCT TAMEL DCT EVBAK DCT GAPLI/N0476F370 DCT GAJIT DCT ENHAQ DCT REDFA |
| Aircraft | B77W/H-SDE1E2E3FGHIJ2J3J4J5M1RWXY/LB1D1 |
Departure
| Time | 2026-04-29 06:14 |
|---|---|
| Airport | Ezeiza International Airport - Ministro Pistarini (SAEZ) |
Arrival
| Time | N/A |
|---|---|
| Airport | Amsterdam Airport Schiphol (EHAM) |
| Time | Latitude | Longitude | Altitude | Speed | Heading |
|---|---|---|---|---|---|
| 2026-04-29 05:38 | -34.81607 | -58.53979 | 84 ft | 0 kts | 321° |
| 2026-04-29 06:01 | -34.81612 | -58.53974 | 85 ft | 4 kts | 320° |
| 2026-04-29 06:02 | -34.81632 | -58.53952 | 85 ft | 4 kts | 314° |
| 2026-04-29 06:02 | -34.81651 | -58.53929 | 85 ft | 4 kts | 316° |
| 2026-04-29 06:02 | -34.81668 | -58.53910 | 85 ft | 4 kts | 324° |
| 2026-04-29 06:02 | -34.81689 | -58.53896 | 85 ft | 4 kts | 347° |
| 2026-04-29 06:03 | -34.81711 | -58.53894 | 85 ft | 4 kts | 21° |
| 2026-04-29 06:03 | -34.81730 | -58.53909 | 85 ft | 4 kts | 51° |
| 2026-04-29 06:03 | -34.81744 | -58.53935 | 85 ft | 4 kts | 61° |
| 2026-04-29 06:03 | -34.81756 | -58.53962 | 85 ft | 1 kts | 60° |
| 2026-04-29 06:06 | -34.81750 | -58.53950 | 85 ft | 5 kts | 58° |
| 2026-04-29 06:06 | -34.81721 | -58.53892 | 85 ft | 9 kts | 59° |
| 2026-04-29 06:06 | -34.81701 | -58.53821 | 85 ft | 9 kts | 86° |
| 2026-04-29 06:07 | -34.81720 | -58.53749 | 84 ft | 9 kts | 124° |
| 2026-04-29 06:07 | -34.81771 | -58.53705 | 85 ft | 9 kts | 154° |
| 2026-04-29 06:07 | -34.81827 | -58.53672 | 83 ft | 9 kts | 154° |
| 2026-04-29 06:07 | -34.81880 | -58.53631 | 85 ft | 9 kts | 140° |
| 2026-04-29 06:08 | -34.81915 | -58.53569 | 81 ft | 9 kts | 111° |
| 2026-04-29 06:08 | -34.81933 | -58.53487 | 81 ft | 11 kts | 104° |
| 2026-04-29 06:08 | -34.81952 | -58.53391 | 85 ft | 12 kts | 103° |
| 2026-04-29 06:08 | -34.81973 | -58.53285 | 83 ft | 14 kts | 103° |
| 2026-04-29 06:09 | -34.81996 | -58.53169 | 85 ft | 14 kts | 103° |
| 2026-04-29 06:09 | -34.82020 | -58.53050 | 83 ft | 14 kts | 103° |
| 2026-04-29 06:09 | -34.82044 | -58.52931 | 86 ft | 14 kts | 104° |
| 2026-04-29 06:09 | -34.82070 | -58.52800 | 85 ft | 18 kts | 104° |
| 2026-04-29 06:10 | -34.82101 | -58.52646 | 81 ft | 20 kts | 104° |
| 2026-04-29 06:10 | -34.82133 | -58.52485 | 83 ft | 20 kts | 103° |
| 2026-04-29 06:10 | -34.82165 | -58.52324 | 84 ft | 20 kts | 103° |
| 2026-04-29 06:10 | -34.82197 | -58.52165 | 85 ft | 20 kts | 104° |
| 2026-04-29 06:11 | -34.82230 | -58.52004 | 83 ft | 20 kts | 104° |
| 2026-04-29 06:11 | -34.82259 | -58.51859 | 83 ft | 15 kts | 103° |
| 2026-04-29 06:11 | -34.82293 | -58.51791 | 86 ft | 9 kts | 160° |
| 2026-04-29 06:11 | -34.82354 | -58.51795 | 86 ft | 9 kts | 191° |
| 2026-04-29 06:12 | -34.82414 | -58.51811 | 85 ft | 9 kts | 192° |
| 2026-04-29 06:12 | -34.82474 | -58.51829 | 91 ft | 9 kts | 195° |
| 2026-04-29 06:12 | -34.82517 | -58.51843 | 88 ft | 3 kts | 200° |
| 2026-04-29 06:12 | -34.82525 | -58.51871 | 91 ft | 4 kts | 269° |
| 2026-04-29 06:13 | -34.82523 | -58.51892 | 91 ft | 1 kts | 279° |
| 2026-04-29 06:13 | -34.82523 | -58.51894 | 91 ft | 0 kts | 279° |
| 2026-04-29 06:13 | -34.82516 | -58.51938 | 89 ft | 30 kts | 281° |
| 2026-04-29 06:13 | -34.82411 | -58.52533 | 85 ft | 112 kts | 282° |
| 2026-04-29 06:14 | -34.82188 | -58.53765 | 88 ft | 184 kts | 282° |
| 2026-04-29 06:14 | -34.81887 | -58.55455 | 392 ft | 210 kts | 282° |
| 2026-04-29 06:14 | -34.81553 | -58.57169 | 1276 ft | 207 kts | 283° |
| 2026-04-29 06:14 | -34.81224 | -58.58898 | 1641 ft | 223 kts | 282° |
| 2026-04-29 06:15 | -34.81070 | -58.60830 | 1826 ft | 237 kts | 257° |
| 2026-04-29 06:15 | -34.81863 | -58.62603 | 2143 ft | 248 kts | 226° |
| 2026-04-29 06:15 | -34.83108 | -58.64132 | 2562 ft | 258 kts | 226° |
| 2026-04-29 06:15 | -34.84368 | -58.65734 | 3193 ft | 264 kts | 226° |
| 2026-04-29 06:16 | -34.85842 | -58.67045 | 3745 ft | 268 kts | 198° |
| 2026-04-29 06:16 | -34.87690 | -58.67154 | 4359 ft | 271 kts | 163° |
| 2026-04-29 06:16 | -34.89324 | -58.66034 | 5038 ft | 273 kts | 135° |
| 2026-04-29 06:16 | -34.90407 | -58.64132 | 5681 ft | 277 kts | 110° |
| 2026-04-29 06:17 | -34.90745 | -58.61855 | 6311 ft | 279 kts | 85° |
| 2026-04-29 06:17 | -34.90433 | -58.59511 | 6841 ft | 283 kts | 79° |
| 2026-04-29 06:17 | -34.90026 | -58.57141 | 7469 ft | 287 kts | 78° |
| 2026-04-29 06:17 | -34.89604 | -58.54762 | 8159 ft | 288 kts | 78° |
| 2026-04-29 06:18 | -34.89176 | -58.52365 | 8801 ft | 290 kts | 78° |
| 2026-04-29 06:18 | -34.88746 | -58.49941 | 9421 ft | 293 kts | 78° |
| 2026-04-29 06:18 | -34.88317 | -58.47498 | 10031 ft | 296 kts | 78° |
| 2026-04-29 06:18 | -34.87884 | -58.45011 | 10458 ft | 308 kts | 78° |
| 2026-04-29 06:19 | -34.87433 | -58.42406 | 10603 ft | 328 kts | 78° |
| 2026-04-29 06:19 | -34.86950 | -58.39601 | 10777 ft | 348 kts | 78° |
| 2026-04-29 06:19 | -34.86439 | -58.36632 | 10968 ft | 368 kts | 78° |
| 2026-04-29 06:19 | -34.85907 | -58.33532 | 11433 ft | 378 kts | 78° |
| 2026-04-29 06:20 | -34.85548 | -58.31439 | 11805 ft | 383 kts | 78° |
| 2026-04-29 06:20 | -34.84999 | -58.28244 | 12476 ft | 388 kts | 78° |
| 2026-04-29 06:20 | -34.84444 | -58.25017 | 13190 ft | 390 kts | 78° |
| 2026-04-29 06:20 | -34.83886 | -58.21774 | 13894 ft | 393 kts | 78° |
| 2026-04-29 06:21 | -34.83321 | -58.18498 | 14554 ft | 397 kts | 78° |
| 2026-04-29 06:21 | -34.82749 | -58.15187 | 15189 ft | 401 kts | 78° |
| 2026-04-29 06:21 | -34.81980 | -58.10744 | 16020 ft | 407 kts | 78° |
| 2026-04-29 06:21 | -34.81394 | -58.07363 | 16633 ft | 410 kts | 78° |
| 2026-04-29 06:22 | -34.80994 | -58.05059 | 17042 ft | 413 kts | 78° |
| 2026-04-29 06:22 | -34.80397 | -58.01626 | 17629 ft | 416 kts | 78° |
| 2026-04-29 06:22 | -34.79794 | -57.98164 | 18215 ft | 420 kts | 78° |
| 2026-04-29 06:22 | -34.79186 | -57.94675 | 18782 ft | 423 kts | 78° |
| 2026-04-29 06:23 | -34.78570 | -57.91154 | 19325 ft | 427 kts | 78° |
| 2026-04-29 06:23 | -34.77958 | -57.87660 | 19862 ft | 430 kts | 78° |
| 2026-04-29 06:23 | -34.77330 | -57.84076 | 20381 ft | 434 kts | 78° |
| 2026-04-29 06:23 | -34.76698 | -57.80479 | 20906 ft | 437 kts | 78° |
| 2026-04-29 06:24 | -34.76057 | -57.76840 | 21409 ft | 440 kts | 78° |
| 2026-04-29 06:24 | -34.75413 | -57.73187 | 21893 ft | 444 kts | 78° |
| 2026-04-29 06:24 | -34.74762 | -57.69502 | 22366 ft | 447 kts | 78° |
| 2026-04-29 06:24 | -34.74106 | -57.65794 | 22825 ft | 450 kts | 78° |
| 2026-04-29 06:25 | -34.73445 | -57.62067 | 23266 ft | 453 kts | 78° |
| 2026-04-29 06:25 | -34.72777 | -57.58308 | 23729 ft | 456 kts | 78° |
| 2026-04-29 06:25 | -34.71957 | -57.54575 | 24108 ft | 459 kts | 70° |
| 2026-04-29 06:25 | -34.70654 | -57.51018 | 24508 ft | 463 kts | 61° |
| 2026-04-29 06:26 | -34.68980 | -57.47732 | 24906 ft | 465 kts | 53° |
| 2026-04-29 06:26 | -34.66935 | -57.44672 | 25312 ft | 467 kts | 50° |
| 2026-04-29 06:26 | -34.64818 | -57.41659 | 25684 ft | 470 kts | 49° |
| 2026-04-29 06:26 | -34.62681 | -57.38636 | 26050 ft | 473 kts | 49° |
| 2026-04-29 06:27 | -34.60532 | -57.35584 | 26398 ft | 476 kts | 50° |
| 2026-04-29 06:27 | -34.58386 | -57.32511 | 26768 ft | 478 kts | 50° |
| 2026-04-29 06:27 | -34.56239 | -57.29420 | 27099 ft | 481 kts | 50° |
| 2026-04-29 06:27 | -34.54073 | -57.26292 | 27441 ft | 483 kts | 50° |
| 2026-04-29 06:28 | -34.51938 | -57.23203 | 27766 ft | 485 kts | 50° |
| 2026-04-29 06:28 | -34.49761 | -57.20055 | 28078 ft | 488 kts | 50° |
| 2026-04-29 06:28 | -34.47570 | -57.16889 | 28379 ft | 490 kts | 50° |
| 2026-04-29 06:28 | -34.45378 | -57.13726 | 28665 ft | 492 kts | 50° |
| 2026-04-29 06:29 | -34.43159 | -57.10529 | 28936 ft | 494 kts | 50° |
| 2026-04-29 06:29 | -34.40939 | -57.07334 | 29239 ft | 495 kts | 50° |
| 2026-04-29 06:29 | -34.38751 | -57.04187 | 29610 ft | 494 kts | 50° |
| 2026-04-29 06:29 | -34.36541 | -57.01012 | 30023 ft | 492 kts | 50° |
| 2026-04-29 06:30 | -34.34336 | -56.97846 | 30390 ft | 491 kts | 50° |
| 2026-04-29 06:30 | -34.29933 | -56.91532 | 30927 ft | 493 kts | 50° |
| 2026-04-29 06:31 | -34.25490 | -56.85173 | 30997 ft | 494 kts | 50° |
| 2026-04-29 06:31 | -34.21073 | -56.78877 | 30995 ft | 489 kts | 50° |
| 2026-04-29 06:32 | -34.16702 | -56.72658 | 31002 ft | 488 kts | 50° |
| 2026-04-29 06:32 | -34.12294 | -56.66395 | 30998 ft | 488 kts | 50° |
| 2026-04-29 06:33 | -34.07890 | -56.60147 | 31002 ft | 489 kts | 50° |
| 2026-04-29 06:33 | -34.03473 | -56.53891 | 31004 ft | 490 kts | 50° |
| 2026-04-29 06:34 | -33.99046 | -56.47631 | 31001 ft | 490 kts | 50° |
| 2026-04-29 06:34 | -33.94636 | -56.41406 | 31000 ft | 491 kts | 49° |
| 2026-04-29 06:35 | -33.90199 | -56.35153 | 31003 ft | 491 kts | 49° |
| 2026-04-29 06:35 | -33.85743 | -56.28923 | 31002 ft | 491 kts | 49° |
| 2026-04-29 06:36 | -33.81250 | -56.22723 | 31000 ft | 491 kts | 49° |
| 2026-04-29 06:36 | -33.76773 | -56.16513 | 30998 ft | 491 kts | 49° |
| 2026-04-29 06:37 | -33.72355 | -56.10326 | 30999 ft | 491 kts | 49° |
| 2026-04-29 06:37 | -33.67913 | -56.04105 | 31002 ft | 490 kts | 49° |
| 2026-04-29 06:38 | -33.63467 | -55.97897 | 31001 ft | 490 kts | 49° |
| 2026-04-29 06:38 | -33.59015 | -55.91697 | 31003 ft | 490 kts | 49° |
| 2026-04-29 06:39 | -33.54552 | -55.85493 | 31001 ft | 490 kts | 49° |
| 2026-04-29 06:39 | -33.50118 | -55.79341 | 31003 ft | 490 kts | 49° |
| 2026-04-29 06:40 | -33.45653 | -55.73156 | 31002 ft | 490 kts | 49° |
| 2026-04-29 06:40 | -33.41183 | -55.66973 | 31003 ft | 490 kts | 49° |
| 2026-04-29 06:41 | -33.36746 | -55.60847 | 31001 ft | 490 kts | 49° |
| 2026-04-29 06:41 | -33.32275 | -55.54686 | 30999 ft | 490 kts | 49° |
| 2026-04-29 06:42 | -33.27798 | -55.48526 | 31003 ft | 490 kts | 49° |
| 2026-04-29 06:42 | -33.23318 | -55.42372 | 30999 ft | 490 kts | 49° |
| 2026-04-29 06:43 | -33.18857 | -55.36255 | 31003 ft | 490 kts | 49° |
| 2026-04-29 06:43 | -33.14374 | -55.30119 | 30998 ft | 490 kts | 49° |
| 2026-04-29 06:44 | -33.09884 | -55.23983 | 30997 ft | 490 kts | 49° |
| 2026-04-29 06:44 | -33.05388 | -55.17849 | 31001 ft | 490 kts | 49° |
| 2026-04-29 06:45 | -33.00893 | -55.11726 | 31003 ft | 490 kts | 49° |
| 2026-04-29 06:45 | -32.96422 | -55.05648 | 31000 ft | 490 kts | 49° |
| 2026-04-29 06:46 | -32.91927 | -54.99546 | 31000 ft | 490 kts | 49° |
| 2026-04-29 06:46 | -32.87420 | -54.93438 | 31003 ft | 490 kts | 49° |
| 2026-04-29 06:47 | -32.82914 | -54.87342 | 31003 ft | 490 kts | 49° |
| 2026-04-29 06:47 | -32.78406 | -54.81253 | 31001 ft | 490 kts | 49° |
| 2026-04-29 06:48 | -32.73892 | -54.75166 | 30999 ft | 491 kts | 49° |
| 2026-04-29 06:48 | -32.69406 | -54.69127 | 31002 ft | 491 kts | 49° |
| 2026-04-29 06:49 | -32.64879 | -54.63043 | 31001 ft | 491 kts | 49° |
| 2026-04-29 06:49 | -32.60349 | -54.56964 | 31002 ft | 491 kts | 49° |
| 2026-04-29 06:50 | -32.55818 | -54.50896 | 31003 ft | 491 kts | 48° |
| 2026-04-29 06:50 | -32.51321 | -54.44882 | 31003 ft | 491 kts | 48° |
| 2026-04-29 06:51 | -32.46783 | -54.38822 | 30997 ft | 491 kts | 48° |
| 2026-04-29 06:51 | -32.42250 | -54.32779 | 31002 ft | 491 kts | 48° |
| 2026-04-29 06:52 | -32.37714 | -54.26739 | 31003 ft | 491 kts | 48° |
| 2026-04-29 06:52 | -32.33165 | -54.20688 | 31001 ft | 491 kts | 49° |
| 2026-04-29 06:53 | -32.28697 | -54.14649 | 31001 ft | 491 kts | 49° |
| 2026-04-29 06:53 | -32.24209 | -54.08559 | 31002 ft | 491 kts | 49° |
| 2026-04-29 06:54 | -32.19709 | -54.02477 | 31003 ft | 491 kts | 49° |
| 2026-04-29 06:54 | -32.15201 | -53.96403 | 31003 ft | 491 kts | 49° |
| 2026-04-29 06:55 | -32.10697 | -53.90342 | 31001 ft | 491 kts | 49° |
| 2026-04-29 06:55 | -32.06024 | -53.84534 | 31004 ft | 491 kts | 41° |
| 2026-04-29 06:56 | -32.00535 | -53.79735 | 31009 ft | 491 kts | 33° |
| 2026-04-29 06:56 | -31.94802 | -53.75343 | 31002 ft | 491 kts | 33° |
| 2026-04-29 06:57 | -31.89115 | -53.70969 | 31004 ft | 491 kts | 33° |
| 2026-04-29 06:57 | -31.83392 | -53.66531 | 30996 ft | 492 kts | 33° |
| 2026-04-29 06:58 | -31.77685 | -53.62096 | 30999 ft | 492 kts | 33° |
| 2026-04-29 06:58 | -31.72008 | -53.57688 | 31002 ft | 492 kts | 33° |
| 2026-04-29 06:59 | -31.66289 | -53.53257 | 31002 ft | 492 kts | 33° |
| 2026-04-29 06:59 | -31.60571 | -53.48834 | 31002 ft | 492 kts | 33° |
| 2026-04-29 07:00 | -31.54851 | -53.44416 | 31002 ft | 492 kts | 33° |
| 2026-04-29 07:00 | -31.49165 | -53.40031 | 30998 ft | 492 kts | 33° |
| 2026-04-29 07:01 | -31.43442 | -53.35624 | 31000 ft | 492 kts | 33° |
| 2026-04-29 07:01 | -31.37719 | -53.31224 | 30999 ft | 492 kts | 33° |
| 2026-04-29 07:02 | -31.31987 | -53.26823 | 31002 ft | 492 kts | 33° |
| 2026-04-29 07:02 | -31.26297 | -53.22460 | 31002 ft | 492 kts | 33° |
| 2026-04-29 07:03 | -31.20574 | -53.18080 | 31003 ft | 492 kts | 33° |
| 2026-04-29 07:03 | -31.14837 | -53.13694 | 31000 ft | 492 kts | 33° |
| 2026-04-29 07:04 | -31.09136 | -53.09343 | 30999 ft | 492 kts | 33° |
| 2026-04-29 07:04 | -31.03407 | -53.04977 | 30999 ft | 492 kts | 33° |
| 2026-04-29 07:05 | -30.97667 | -53.00608 | 30999 ft | 492 kts | 33° |
| 2026-04-29 07:05 | -30.91923 | -52.96243 | 31003 ft | 492 kts | 33° |
| 2026-04-29 07:06 | -30.86177 | -52.91883 | 30999 ft | 492 kts | 33° |
| 2026-04-29 07:06 | -30.80465 | -52.87555 | 31002 ft | 492 kts | 33° |
| 2026-04-29 07:07 | -30.74718 | -52.83206 | 30998 ft | 492 kts | 33° |
| 2026-04-29 07:07 | -30.68974 | -52.78867 | 31002 ft | 492 kts | 33° |
| 2026-04-29 07:08 | -30.63263 | -52.74558 | 31002 ft | 492 kts | 33° |
| 2026-04-29 07:08 | -30.57516 | -52.70228 | 31002 ft | 492 kts | 33° |
| 2026-04-29 07:09 | -30.51765 | -52.65902 | 31002 ft | 492 kts | 33° |
| 2026-04-29 07:09 | -30.46018 | -52.61584 | 31002 ft | 492 kts | 33° |
| 2026-04-29 07:10 | -30.40267 | -52.57270 | 31000 ft | 492 kts | 33° |
| 2026-04-29 07:10 | -30.34545 | -52.52984 | 31002 ft | 492 kts | 33° |
| 2026-04-29 07:11 | -30.28794 | -52.48682 | 31001 ft | 492 kts | 33° |
| 2026-04-29 07:11 | -30.23042 | -52.44386 | 31002 ft | 492 kts | 33° |
| 2026-04-29 07:12 | -30.17278 | -52.40086 | 31002 ft | 492 kts | 33° |
| 2026-04-29 07:12 | -30.11547 | -52.35817 | 31000 ft | 492 kts | 33° |
| 2026-04-29 07:13 | -30.05788 | -52.31534 | 31003 ft | 492 kts | 33° |
| 2026-04-29 07:13 | -30.00997 | -52.27975 | 31002 ft | 492 kts | 33° |
| 2026-04-29 07:14 | -29.95236 | -52.23700 | 31002 ft | 492 kts | 32° |
| 2026-04-29 07:14 | -29.89477 | -52.19433 | 31002 ft | 492 kts | 32° |
| 2026-04-29 07:15 | -29.83703 | -52.15162 | 31002 ft | 492 kts | 32° |
| 2026-04-29 07:15 | -29.77940 | -52.10904 | 31000 ft | 492 kts | 32° |
| 2026-04-29 07:16 | -29.72172 | -52.06648 | 31001 ft | 492 kts | 32° |
| 2026-04-29 07:16 | -29.66444 | -52.02428 | 31002 ft | 492 kts | 32° |
| 2026-04-29 07:17 | -29.60671 | -51.98180 | 31002 ft | 492 kts | 32° |
| 2026-04-29 07:17 | -29.54900 | -51.93939 | 31003 ft | 492 kts | 32° |
| 2026-04-29 07:18 | -29.49127 | -51.89704 | 31002 ft | 492 kts | 32° |
| 2026-04-29 07:18 | -29.43381 | -51.85493 | 31002 ft | 492 kts | 32° |
| 2026-04-29 07:19 | -29.37605 | -51.81266 | 31002 ft | 492 kts | 32° |
| 2026-04-29 07:19 | -29.31830 | -51.77044 | 31001 ft | 492 kts | 32° |
| 2026-04-29 07:20 | -29.26053 | -51.72812 | 31002 ft | 492 kts | 33° |
| 2026-04-29 07:20 | -29.20362 | -51.68498 | 31003 ft | 492 kts | 33° |
| 2026-04-29 07:21 | -29.14627 | -51.64132 | 31002 ft | 492 kts | 33° |
| 2026-04-29 07:21 | -29.08943 | -51.59837 | 31005 ft | 492 kts | 33° |
| 2026-04-29 07:22 | -29.03211 | -51.55523 | 31002 ft | 492 kts | 33° |
| 2026-04-29 07:22 | -28.97488 | -51.51225 | 30997 ft | 492 kts | 33° |
| 2026-04-29 07:23 | -28.93699 | -51.48382 | 31005 ft | 492 kts | 33° |